createdAt,value
2022-07-26T00:00:13.283Z,90.70
2022-07-26T00:02:47.750Z,90.70
2022-07-26T00:05:16.760Z,90.60
2022-07-26T00:07:44.222Z,91.10
2022-07-26T00:10:11.328Z,90.80
2022-07-26T00:12:38.918Z,91.10
2022-07-26T00:15:09.070Z,91.00
2022-07-26T00:17:35.972Z,90.70
2022-07-26T00:20:03.209Z,90.80
2022-07-26T00:22:35.831Z,90.70
2022-07-26T00:25:05.686Z,90.80
2022-07-26T00:27:33.382Z,90.90
2022-07-26T00:30:00.124Z,90.70
2022-07-26T00:32:26.952Z,90.70
2022-07-26T00:34:53.803Z,90.70
2022-07-26T00:37:21.098Z,90.60
2022-07-26T00:39:48.820Z,90.60
2022-07-26T00:42:15.909Z,90.50
2022-07-26T00:44:45.157Z,90.50
2022-07-26T00:47:12.684Z,90.50
2022-07-26T00:49:40.030Z,90.60
2022-07-26T00:52:07.941Z,90.70
2022-07-26T00:54:35.942Z,90.40
2022-07-26T00:57:02.946Z,90.30
2022-07-26T00:59:29.810Z,90.50
2022-07-26T01:01:56.904Z,90.40
2022-07-26T01:04:24.031Z,90.50
2022-07-26T01:06:51.274Z,90.60
2022-07-26T01:09:19.597Z,90.10
2022-07-26T01:11:46.353Z,90.00
2022-07-26T01:14:13.210Z,88.70
2022-07-26T01:16:40.132Z,88.20
2022-07-26T01:19:07.003Z,88.70
2022-07-26T01:21:34.229Z,89.00
2022-07-26T01:24:01.073Z,90.00
2022-07-26T01:26:27.978Z,90.40
2022-07-26T01:28:54.813Z,91.00
2022-07-26T01:31:22.242Z,91.60
2022-07-26T01:33:49.873Z,92.60
2022-07-26T01:36:17.009Z,93.90
2022-07-26T01:38:44.156Z,94.50
2022-07-26T01:41:10.924Z,94.70
2022-07-26T01:43:37.935Z,95.30
2022-07-26T01:46:07.310Z,96.00
2022-07-26T01:48:35.008Z,96.80
2022-07-26T01:51:01.931Z,97.40
2022-07-26T01:53:28.966Z,98.10
2022-07-26T01:55:55.741Z,99.00
2022-07-26T01:58:22.502Z,99.90
2022-07-26T02:00:49.869Z,99.90
2022-07-26T02:05:43.868Z,99.90
2022-07-26T02:08:11.677Z,99.90
2022-07-26T02:10:58.284Z,99.90
2022-07-26T02:13:26.452Z,99.90
2022-07-26T02:15:53.237Z,99.90
2022-07-26T02:18:20.036Z,99.90
2022-07-26T02:20:46.757Z,99.90
2022-07-26T02:23:13.500Z,99.90
2022-07-26T02:30:34.733Z,99.90
2022-07-26T02:33:01.832Z,99.90
2022-07-26T02:35:28.699Z,99.90
2022-07-26T02:37:55.437Z,99.90
2022-07-26T02:40:22.157Z,99.90
2022-07-26T02:42:49.001Z,99.90
2022-07-26T02:45:15.777Z,99.90
2022-07-26T02:47:50.203Z,99.90
2022-07-26T02:50:22.592Z,99.90
2022-07-26T02:52:49.923Z,99.90
2022-07-26T02:55:19.017Z,99.90
2022-07-26T02:57:47.013Z,99.90
2022-07-26T03:00:16.889Z,99.90
2022-07-26T03:02:44.060Z,99.90
2022-07-26T03:05:11.377Z,99.90
2022-07-26T03:07:38.324Z,99.90
2022-07-26T03:10:06.083Z,99.90
2022-07-26T03:12:33.043Z,99.90
2022-07-26T03:14:59.793Z,99.90
2022-07-26T03:17:26.919Z,99.90
2022-07-26T03:19:53.749Z,99.90
2022-07-26T03:22:20.482Z,99.90
2022-07-26T03:24:47.216Z,99.90
2022-07-26T03:27:13.949Z,99.90
2022-07-26T03:29:40.683Z,99.90
2022-07-26T03:34:35.649Z,99.90
2022-07-26T03:37:02.858Z,99.90
2022-07-26T03:39:29.952Z,99.90
2022-07-26T03:41:56.706Z,99.90
2022-07-26T03:44:23.441Z,99.90
2022-07-26T03:46:50.327Z,99.90
2022-07-26T03:49:17.494Z,99.90
2022-07-26T03:51:44.630Z,99.90
2022-07-26T03:54:11.961Z,99.90
2022-07-26T03:56:40.118Z,99.90
2022-07-26T03:59:11.380Z,99.90
2022-07-26T04:01:42.550Z,99.90
2022-07-26T04:04:10.662Z,99.90
2022-07-26T04:06:39.396Z,99.90
2022-07-26T04:09:07.262Z,99.90
2022-07-26T04:11:34.916Z,99.90
2022-07-26T04:14:02.648Z,99.90
2022-07-26T04:16:29.502Z,99.90
2022-07-26T04:18:56.306Z,99.90
2022-07-26T04:21:23.159Z,99.90
2022-07-26T04:23:51.468Z,99.90
2022-07-26T04:26:20.213Z,99.90
2022-07-26T04:28:47.318Z,99.90
2022-07-26T04:31:14.307Z,99.90
2022-07-26T04:33:41.292Z,99.90
2022-07-26T04:36:08.487Z,99.90
2022-07-26T04:38:35.215Z,99.90
2022-07-26T04:41:02.020Z,99.90
2022-07-26T04:43:28.775Z,99.90
2022-07-26T04:45:57.430Z,99.90
2022-07-26T04:48:24.625Z,99.90
2022-07-26T04:50:51.624Z,99.90
2022-07-26T04:53:18.882Z,99.90
2022-07-26T04:55:45.669Z,99.90
2022-07-26T04:58:12.671Z,99.90
2022-07-26T05:03:26.614Z,99.90
2022-07-26T05:05:53.724Z,99.90
2022-07-26T05:08:20.535Z,99.90
2022-07-26T05:10:53.003Z,99.90
2022-07-26T05:13:30.143Z,99.90
2022-07-26T05:15:59.427Z,99.90
2022-07-26T05:18:26.604Z,99.90
2022-07-26T05:20:53.566Z,99.90
2022-07-26T05:23:20.530Z,99.90
2022-07-26T05:25:47.705Z,99.90
2022-07-26T05:28:14.624Z,99.90
2022-07-26T05:30:41.523Z,99.90
2022-07-26T05:33:08.482Z,99.90
2022-07-26T05:35:35.275Z,99.90
2022-07-26T05:38:02.251Z,99.90
2022-07-26T05:40:29.216Z,99.90
2022-07-26T05:42:55.984Z,99.90
2022-07-26T05:45:22.812Z,99.90
2022-07-26T05:47:50.971Z,99.90
2022-07-26T05:50:18.094Z,99.90
2022-07-26T05:52:44.976Z,99.90
2022-07-26T05:55:12.108Z,99.90
2022-07-26T05:57:42.066Z,99.90
2022-07-26T06:00:12.278Z,99.90
2022-07-26T06:02:39.570Z,99.90
2022-07-26T06:05:06.855Z,99.90
2022-07-26T06:07:34.061Z,99.90
2022-07-26T06:10:00.882Z,99.90
2022-07-26T06:12:27.650Z,99.90
2022-07-26T06:14:54.419Z,99.90
2022-07-26T06:17:21.608Z,99.90
2022-07-26T06:19:48.442Z,99.90
2022-07-26T06:22:15.469Z,99.90
2022-07-26T06:24:42.282Z,99.90
2022-07-26T06:27:09.349Z,99.90
2022-07-26T06:29:36.130Z,99.90
2022-07-26T06:32:03.024Z,99.90
2022-07-26T06:34:30.072Z,99.90
2022-07-26T06:36:56.854Z,99.90
2022-07-26T06:39:23.604Z,99.90
2022-07-26T06:41:50.563Z,99.90
2022-07-26T06:44:17.340Z,99.90
2022-07-26T06:46:44.195Z,99.90
2022-07-26T06:49:13.534Z,99.90
2022-07-26T06:51:40.341Z,99.90
2022-07-26T06:54:07.524Z,99.90
2022-07-26T06:56:34.462Z,99.90
2022-07-26T06:59:03.130Z,99.90
2022-07-26T07:01:58.102Z,99.90
2022-07-26T07:04:20.270Z,99.90
2022-07-26T07:06:47.046Z,99.90
2022-07-26T07:09:16.368Z,99.90
2022-07-26T07:11:44.444Z,99.90
2022-07-26T07:14:12.217Z,99.90
2022-07-26T07:16:39.138Z,99.90
2022-07-26T07:19:06.112Z,99.90
2022-07-26T07:21:33.847Z,99.90
2022-07-26T07:24:00.692Z,99.90
2022-07-26T07:26:28.877Z,99.90
2022-07-26T07:28:55.931Z,99.90
2022-07-26T07:31:30.170Z,99.90
2022-07-26T07:33:57.710Z,99.90
2022-07-26T07:36:24.853Z,99.90
2022-07-26T07:38:51.747Z,99.90
2022-07-26T07:41:19.831Z,99.90
2022-07-26T07:43:46.770Z,99.90
2022-07-26T07:46:13.827Z,99.90
2022-07-26T07:48:47.023Z,99.90
2022-07-26T07:51:14.986Z,99.90
2022-07-26T07:53:42.887Z,99.90
2022-07-26T07:56:09.700Z,99.90
2022-07-26T07:58:36.558Z,99.90
2022-07-26T08:01:03.400Z,99.90
2022-07-26T08:03:38.572Z,99.90
2022-07-26T08:06:08.015Z,99.90
2022-07-26T08:08:35.831Z,99.90
2022-07-26T08:11:03.358Z,99.90
2022-07-26T08:13:30.692Z,99.90
2022-07-26T08:15:59.476Z,99.90
2022-07-26T08:18:27.815Z,99.90
2022-07-26T08:20:55.450Z,99.90
2022-07-26T08:23:22.624Z,99.90
2022-07-26T08:25:57.160Z,99.90
2022-07-26T08:31:13.527Z,99.90
2022-07-26T08:33:45.052Z,99.90
2022-07-26T08:36:17.007Z,99.90
2022-07-26T08:38:44.998Z,99.90
2022-07-26T08:41:14.645Z,99.90
2022-07-26T08:43:48.949Z,99.90
2022-07-26T08:46:24.702Z,99.90
2022-07-26T08:48:53.401Z,99.90
2022-07-26T08:51:22.557Z,99.90
2022-07-26T08:53:50.726Z,99.90
2022-07-26T08:56:17.454Z,99.90
2022-07-26T08:58:45.324Z,99.90
2022-07-26T09:01:13.051Z,99.90
2022-07-26T09:03:44.779Z,99.90
2022-07-26T09:06:19.542Z,99.90
2022-07-26T09:08:53.554Z,99.90
2022-07-26T09:11:32.636Z,99.90
2022-07-26T09:14:04.735Z,99.90
2022-07-26T09:16:34.950Z,99.90
2022-07-26T09:19:19.630Z,99.90
2022-07-26T09:21:46.782Z,99.90
2022-07-26T09:24:29.093Z,99.90
2022-07-26T09:27:01.202Z,99.90
2022-07-26T09:29:32.081Z,99.90
2022-07-26T09:32:11.329Z,99.90
2022-07-26T09:34:48.035Z,99.90
2022-07-26T09:37:32.125Z,99.90
2022-07-26T09:40:01.413Z,99.90
2022-07-26T09:42:29.810Z,99.90
2022-07-26T09:44:57.758Z,99.90
2022-07-26T09:47:39.914Z,99.90
2022-07-26T09:50:24.109Z,99.90
2022-07-26T09:53:17.055Z,99.90
2022-07-26T09:55:46.810Z,99.90
2022-07-26T09:58:15.126Z,99.90
2022-07-26T10:00:43.617Z,99.90
2022-07-26T10:03:10.843Z,99.90
2022-07-26T10:05:37.993Z,99.90
2022-07-26T10:08:05.756Z,99.90
2022-07-26T10:10:45.350Z,99.90
2022-07-26T10:13:12.954Z,99.90
2022-07-26T10:15:47.219Z,99.90
2022-07-26T10:18:44.229Z,99.90
2022-07-26T10:21:16.692Z,99.90
2022-07-26T10:23:47.918Z,99.90
2022-07-26T10:26:32.740Z,99.90
2022-07-26T10:29:17.520Z,99.90
2022-07-26T10:31:48.383Z,99.90
2022-07-26T10:34:31.648Z,99.90
2022-07-26T10:37:03.185Z,99.90
2022-07-26T10:39:30.022Z,99.90
2022-07-26T10:42:05.993Z,99.90
2022-07-26T10:44:35.054Z,99.90
2022-07-26T10:47:07.497Z,99.90
2022-07-26T10:49:35.580Z,99.90
2022-07-26T10:52:12.181Z,99.90
2022-07-26T10:54:57.335Z,99.90
2022-07-26T10:57:25.646Z,99.90
2022-07-26T10:59:56.221Z,99.90
2022-07-26T11:02:26.421Z,99.90
2022-07-26T11:05:19.533Z,99.90
2022-07-26T11:07:51.973Z,99.90
2022-07-26T11:10:23.753Z,99.90
2022-07-26T11:18:12.297Z,99.90
2022-07-26T11:20:39.997Z,99.90
2022-07-26T11:23:24.028Z,99.90
2022-07-26T11:26:11.847Z,99.90
2022-07-26T11:28:57.995Z,99.90
2022-07-26T11:31:52.005Z,99.90
2022-07-26T11:34:30.234Z,99.90
2022-07-26T11:36:58.439Z,99.90
2022-07-26T11:39:29.699Z,99.90
2022-07-26T11:42:00.415Z,99.90
2022-07-26T11:44:28.264Z,99.90
2022-07-26T11:46:56.071Z,99.90
2022-07-26T11:49:59.737Z,99.90
2022-07-26T11:52:15.975Z,99.90
2022-07-26T11:54:53.621Z,99.90
2022-07-26T11:57:20.926Z,99.90
2022-07-26T11:59:50.426Z,99.90
2022-07-26T12:02:17.785Z,99.90
2022-07-26T12:04:44.985Z,99.90
2022-07-26T12:07:14.676Z,99.90
2022-07-26T12:09:47.206Z,99.90
2022-07-26T12:12:27.923Z,99.90
2022-07-26T12:15:07.055Z,99.90
2022-07-26T12:17:35.762Z,99.90
2022-07-26T12:20:17.534Z,99.90
2022-07-26T12:23:00.389Z,99.90
2022-07-26T12:25:28.561Z,99.90
2022-07-26T12:27:55.449Z,99.90
2022-07-26T12:30:25.729Z,99.90
2022-07-26T12:33:02.292Z,99.90
2022-07-26T12:35:35.625Z,99.90
2022-07-26T12:38:03.642Z,99.90
2022-07-26T12:40:39.578Z,99.90
2022-07-26T12:43:06.530Z,99.90
2022-07-26T12:45:35.116Z,99.90
2022-07-26T12:48:06.811Z,99.90
2022-07-26T12:50:33.533Z,99.90
2022-07-26T12:53:05.964Z,99.90
2022-07-26T12:55:33.525Z,99.90
2022-07-26T12:58:00.774Z,99.90
2022-07-26T13:00:29.658Z,99.90
2022-07-26T13:02:57.710Z,99.90
2022-07-26T13:05:24.885Z,99.90
2022-07-26T13:07:52.383Z,99.90
2022-07-26T13:10:35.892Z,99.90
2022-07-26T13:13:04.044Z,99.90
2022-07-26T13:15:37.387Z,99.90
2022-07-26T13:20:38.657Z,99.90
2022-07-26T13:23:09.786Z,99.90
2022-07-26T13:25:40.551Z,99.90
2022-07-26T13:28:08.689Z,99.90
2022-07-26T13:30:39.490Z,99.90
2022-07-26T13:33:07.021Z,99.90
2022-07-26T13:35:33.783Z,99.90
2022-07-26T13:38:00.496Z,99.90
2022-07-26T13:40:31.580Z,99.90
2022-07-26T13:42:59.066Z,99.90
2022-07-26T13:45:29.052Z,99.90
2022-07-26T13:47:57.663Z,99.90
2022-07-26T13:50:26.937Z,99.90
2022-07-26T13:52:55.833Z,99.90
2022-07-26T13:55:22.700Z,99.90
2022-07-26T13:57:55.759Z,99.90
2022-07-26T14:00:25.348Z,99.90
2022-07-26T14:02:52.192Z,99.90
2022-07-26T14:05:20.457Z,99.90
2022-07-26T14:07:47.245Z,99.90
2022-07-26T14:10:14.025Z,99.90
2022-07-26T14:12:41.134Z,99.90
2022-07-26T14:15:16.807Z,99.90
2022-07-26T14:17:47.287Z,99.90
2022-07-26T14:20:14.855Z,99.90
2022-07-26T14:22:41.611Z,99.90
2022-07-26T14:25:08.871Z,99.90
2022-07-26T14:27:35.603Z,99.90
2022-07-26T14:30:03.086Z,99.90
2022-07-26T14:32:29.845Z,99.90
2022-07-26T14:34:56.610Z,99.90
2022-07-26T14:37:43.204Z,99.90
2022-07-26T14:40:10.964Z,99.90
2022-07-26T14:42:37.709Z,99.90
2022-07-26T14:45:04.917Z,99.90
2022-07-26T14:47:31.695Z,99.90
2022-07-26T14:50:02.785Z,99.90
2022-07-26T14:52:32.901Z,99.90
2022-07-26T14:54:59.702Z,99.90
2022-07-26T14:57:26.856Z,99.90
2022-07-26T14:59:53.693Z,99.90
2022-07-26T15:02:20.572Z,99.90
2022-07-26T15:04:47.463Z,99.90
2022-07-26T15:07:14.182Z,99.90
2022-07-26T15:09:40.990Z,99.90
2022-07-26T15:12:08.434Z,99.90
2022-07-26T15:14:36.142Z,99.90
2022-07-26T15:17:03.335Z,99.90
2022-07-26T15:19:30.109Z,99.90
2022-07-26T15:21:57.132Z,99.90
2022-07-26T15:24:24.440Z,99.90
2022-07-26T15:26:51.365Z,99.90
2022-07-26T15:29:18.225Z,99.90
2022-07-26T15:31:46.478Z,99.90
2022-07-26T15:34:13.638Z,99.90
2022-07-26T15:36:41.130Z,99.90
2022-07-26T15:39:23.739Z,99.90
2022-07-26T15:41:50.524Z,99.90
2022-07-26T15:44:20.145Z,99.90
2022-07-26T15:46:49.165Z,99.90
2022-07-26T15:49:17.800Z,99.90
2022-07-26T15:51:44.945Z,99.90
2022-07-26T15:54:14.189Z,99.90
2022-07-26T15:56:42.295Z,99.90
2022-07-26T15:59:09.414Z,99.90
2022-07-26T16:01:37.031Z,99.90
2022-07-26T16:04:05.242Z,99.90
2022-07-26T16:06:33.500Z,99.90
2022-07-26T16:09:16.658Z,99.90
2022-07-26T16:11:44.841Z,99.90
2022-07-26T16:14:12.310Z,99.90
2022-07-26T16:16:39.140Z,99.90
2022-07-26T16:19:05.916Z,99.90
2022-07-26T16:21:32.811Z,99.90
2022-07-26T16:24:04.424Z,99.90
2022-07-26T16:26:33.601Z,99.90
2022-07-26T16:29:00.825Z,99.90
2022-07-26T16:31:27.836Z,99.90
2022-07-26T16:33:54.877Z,99.90
2022-07-26T16:36:21.671Z,99.90
2022-07-26T16:38:48.456Z,99.90
2022-07-26T16:41:15.196Z,99.90
2022-07-26T16:43:42.940Z,99.90
2022-07-26T16:46:10.068Z,99.90
2022-07-26T16:48:36.977Z,99.90
2022-07-26T16:51:03.964Z,99.90
2022-07-26T16:53:30.720Z,99.90
2022-07-26T16:55:57.473Z,99.90
2022-07-26T16:58:24.215Z,99.90
2022-07-26T17:00:51.225Z,99.90
2022-07-26T17:03:18.436Z,99.90
2022-07-26T17:05:46.273Z,99.90
2022-07-26T17:08:13.414Z,99.90
2022-07-26T17:10:40.163Z,99.90
2022-07-26T17:13:07.133Z,99.90
2022-07-26T17:15:33.854Z,99.90
2022-07-26T17:18:00.661Z,99.90
2022-07-26T17:20:27.734Z,99.90
2022-07-26T17:22:55.098Z,99.90
2022-07-26T17:25:21.882Z,99.90
2022-07-26T17:27:49.089Z,99.90
2022-07-26T17:30:16.960Z,99.90
2022-07-26T17:32:43.812Z,99.90
2022-07-26T17:35:10.623Z,99.90
2022-07-26T17:37:37.551Z,99.90
2022-07-26T17:40:07.843Z,99.90
2022-07-26T17:42:35.619Z,99.90
2022-07-26T17:45:02.714Z,99.90
2022-07-26T17:47:30.357Z,99.90
2022-07-26T17:50:34.042Z,99.90
2022-07-26T17:52:50.092Z,99.90
2022-07-26T17:55:18.944Z,99.90
2022-07-26T17:57:47.699Z,99.90
2022-07-26T18:00:15.733Z,99.90
2022-07-26T18:02:42.569Z,99.90
2022-07-26T18:05:11.130Z,99.90
2022-07-26T18:07:38.968Z,99.90
2022-07-26T18:10:06.284Z,99.90
2022-07-26T18:12:33.031Z,99.90
2022-07-26T18:14:59.765Z,99.90
2022-07-26T18:17:26.544Z,99.90
2022-07-26T18:19:53.332Z,99.90
2022-07-26T18:22:20.080Z,99.90
2022-07-26T18:24:46.859Z,99.90
2022-07-26T18:27:13.607Z,99.90
2022-07-26T18:29:40.364Z,99.90
2022-07-26T18:32:07.182Z,99.90
2022-07-26T18:34:33.969Z,99.90
2022-07-26T18:37:00.706Z,99.90
2022-07-26T18:39:32.650Z,99.90
2022-07-26T18:42:00.212Z,99.90
2022-07-26T18:44:27.181Z,99.90
2022-07-26T18:46:56.472Z,99.90
2022-07-26T18:49:23.678Z,99.90
2022-07-26T18:52:00.667Z,99.90
2022-07-26T18:54:30.888Z,99.90
2022-07-26T18:56:57.962Z,99.90
2022-07-26T18:59:24.672Z,99.90
2022-07-26T19:01:51.439Z,99.90
2022-07-26T19:04:19.260Z,99.90
2022-07-26T19:06:49.100Z,99.90
2022-07-26T19:09:16.733Z,99.90
2022-07-26T19:11:45.690Z,99.90
2022-07-26T19:14:12.679Z,99.90
2022-07-26T19:16:39.421Z,99.90
2022-07-26T19:19:06.151Z,99.90
2022-07-26T19:21:33.097Z,99.90
2022-07-26T19:23:59.848Z,99.90
2022-07-26T19:26:27.479Z,99.90
2022-07-26T19:28:54.464Z,99.90
2022-07-26T19:31:22.127Z,99.90
2022-07-26T19:33:49.111Z,99.90
2022-07-26T19:36:22.567Z,99.90
2022-07-26T19:38:53.381Z,99.90
2022-07-26T19:41:20.229Z,99.90
2022-07-26T19:43:47.210Z,99.90
2022-07-26T19:46:14.349Z,99.90
2022-07-26T19:48:41.223Z,99.90
2022-07-26T19:51:08.109Z,99.90
2022-07-26T19:53:34.859Z,99.90
2022-07-26T19:56:01.745Z,99.90
2022-07-26T19:58:30.606Z,99.90
2022-07-26T20:00:57.437Z,99.90
2022-07-26T20:03:24.359Z,99.90
2022-07-26T20:05:53.405Z,99.90
2022-07-26T20:08:20.123Z,99.90
2022-07-26T20:10:46.869Z,99.90
2022-07-26T20:13:13.841Z,99.90
2022-07-26T20:15:40.561Z,99.90
2022-07-26T20:18:07.432Z,99.90
2022-07-26T20:20:34.447Z,99.90
2022-07-26T20:23:02.232Z,99.90
2022-07-26T20:25:28.974Z,99.90
2022-07-26T20:27:55.693Z,99.90
2022-07-26T20:30:22.454Z,99.90
2022-07-26T20:32:49.266Z,99.90
2022-07-26T20:35:16.022Z,99.90
2022-07-26T20:37:43.529Z,99.90
2022-07-26T20:40:11.923Z,99.90
2022-07-26T20:42:41.873Z,99.90
2022-07-26T20:45:12.994Z,99.90
2022-07-26T20:47:40.494Z,99.90
2022-07-26T20:50:11.781Z,99.90
2022-07-26T20:52:39.633Z,99.90
2022-07-26T20:55:07.368Z,99.90
2022-07-26T20:57:34.185Z,99.90
2022-07-26T21:00:00.965Z,99.90
2022-07-26T21:02:27.940Z,99.90
2022-07-26T21:04:55.182Z,99.90
2022-07-26T21:07:22.231Z,99.90
2022-07-26T21:09:48.977Z,99.90
2022-07-26T21:12:15.763Z,99.90
2022-07-26T21:14:42.518Z,99.90
2022-07-26T21:17:12.135Z,99.90
2022-07-26T21:19:40.048Z,99.90
2022-07-26T21:22:07.307Z,99.90
2022-07-26T21:24:37.418Z,99.90
2022-07-26T21:27:05.608Z,99.90
2022-07-26T21:29:39.490Z,99.90
2022-07-26T21:32:06.677Z,99.90
2022-07-26T21:34:34.360Z,99.90
2022-07-26T21:37:01.935Z,99.90
2022-07-26T21:39:28.800Z,99.90
2022-07-26T21:41:55.595Z,99.90
2022-07-26T21:44:22.426Z,99.90
2022-07-26T21:46:50.524Z,99.90
2022-07-26T21:49:19.174Z,99.90
2022-07-26T21:51:46.179Z,99.90
2022-07-26T21:54:12.944Z,99.90
2022-07-26T21:56:39.850Z,99.90
2022-07-26T21:59:06.802Z,99.90
2022-07-26T22:01:33.797Z,99.90
2022-07-26T22:04:00.572Z,99.90
2022-07-26T22:06:27.308Z,99.90
2022-07-26T22:08:54.065Z,99.90
2022-07-26T22:11:21.134Z,99.90
2022-07-26T22:13:47.977Z,99.90
2022-07-26T22:16:14.822Z,99.90
2022-07-26T22:18:41.836Z,99.90
2022-07-26T22:21:08.565Z,99.90
2022-07-26T22:23:35.308Z,99.90
2022-07-26T22:26:03.919Z,99.90
2022-07-26T22:28:32.269Z,99.90
2022-07-26T22:30:59.748Z,99.90
2022-07-26T22:33:26.562Z,99.90
2022-07-26T22:35:53.368Z,99.90
2022-07-26T22:38:20.158Z,99.90
2022-07-26T22:40:47.076Z,99.90
2022-07-26T22:43:14.892Z,99.90
2022-07-26T22:45:41.921Z,99.90
2022-07-26T22:48:11.444Z,99.90
2022-07-26T22:50:38.390Z,99.90
2022-07-26T22:53:05.117Z,99.90
2022-07-26T22:55:32.102Z,99.90
2022-07-26T22:57:59.363Z,99.90
2022-07-26T23:00:26.123Z,99.90
2022-07-26T23:02:53.259Z,99.90
2022-07-26T23:05:20.089Z,99.90
2022-07-26T23:07:48.461Z,99.90
2022-07-26T23:10:15.557Z,99.90
2022-07-26T23:12:42.390Z,99.90
2022-07-26T23:15:10.118Z,99.90
2022-07-26T23:17:37.712Z,99.90
2022-07-26T23:20:06.337Z,99.90
2022-07-26T23:22:34.404Z,99.90
2022-07-26T23:25:01.358Z,99.90
2022-07-26T23:27:28.074Z,99.90
2022-07-26T23:29:55.432Z,99.90
2022-07-26T23:32:22.358Z,99.90
2022-07-26T23:34:49.186Z,99.90
2022-07-26T23:37:15.952Z,99.90
2022-07-26T23:39:42.944Z,99.90
2022-07-26T23:42:09.749Z,99.90
2022-07-26T23:44:36.528Z,99.90
2022-07-26T23:47:03.409Z,99.90
2022-07-26T23:49:30.234Z,99.90
2022-07-26T23:51:57.074Z,99.90
2022-07-26T23:54:23.789Z,99.90
2022-07-26T23:56:50.579Z,99.90
2022-07-26T23:59:17.576Z,99.90
